sensor_id;sensor_type;location;lat;lon;timestamp;pressure;altitude;pressure_sealevel;temperature;humidity
12969;BME280;6549;53.128;8.182;2024-01-25T00:01:40;102022.44;;;7.46;100.00
12969;BME280;6549;53.128;8.182;2024-01-25T00:04:41;102028.03;;;7.50;100.00
12969;BME280;6549;53.128;8.182;2024-01-25T00:07:49;102040.47;;;7.47;100.00
12969;BME280;6549;53.128;8.182;2024-01-25T00:10:49;102029.56;;;7.39;100.00
12969;BME280;6549;53.128;8.182;2024-01-25T00:13:49;102028.41;;;7.40;100.00
12969;BME280;6549;53.128;8.182;2024-01-25T00:16:50;102033.44;;;7.38;100.00
12969;BME280;6549;53.128;8.182;2024-01-25T00:19:51;102039.91;;;7.33;100.00
12969;BME280;6549;53.128;8.182;2024-01-25T00:22:52;102032.22;;;7.27;100.00
12969;BME280;6549;53.128;8.182;2024-01-25T00:25:52;102044.31;;;7.26;100.00
12969;BME280;6549;53.128;8.182;2024-01-25T00:28:52;102035.00;;;7.18;100.00
12969;BME280;6549;53.128;8.182;2024-01-25T00:31:53;102037.88;;;7.21;100.00
12969;BME280;6549;53.128;8.182;2024-01-25T00:34:53;102045.75;;;7.23;100.00
12969;BME280;6549;53.128;8.182;2024-01-25T00:37:54;102041.09;;;7.23;100.00
12969;BME280;6549;53.128;8.182;2024-01-25T00:40:54;102046.88;;;7.22;100.00
12969;BME280;6549;53.128;8.182;2024-01-25T00:43:55;102057.34;;;7.20;100.00
12969;BME280;6549;53.128;8.182;2024-01-25T00:46:55;102047.69;;;7.22;100.00
12969;BME280;6549;53.128;8.182;2024-01-25T00:49:56;102048.81;;;7.21;100.00
12969;BME280;6549;53.128;8.182;2024-01-25T00:52:57;102045.31;;;7.21;100.00
12969;BME280;6549;53.128;8.182;2024-01-25T00:55:58;102046.28;;;7.16;100.00
12969;BME280;6549;53.128;8.182;2024-01-25T00:58:58;102037.28;;;7.16;100.00
12969;BME280;6549;53.128;8.182;2024-01-25T01:02:00;102032.88;;;7.23;100.00
12969;BME280;6549;53.128;8.182;2024-01-25T01:05:02;102034.41;;;7.12;100.00
12969;BME280;6549;53.128;8.182;2024-01-25T01:08:03;102027.00;;;7.13;100.00
12969;BME280;6549;53.128;8.182;2024-01-25T01:11:04;102036.81;;;7.14;100.00
12969;BME280;6549;53.128;8.182;2024-01-25T01:14:04;102043.88;;;7.15;100.00
12969;BME280;6549;53.128;8.182;2024-01-25T01:17:05;102050.94;;;7.16;100.00
12969;BME280;6549;53.128;8.182;2024-01-25T01:20:06;102049.53;;;7.10;100.00
12969;BME280;6549;53.128;8.182;2024-01-25T01:23:06;102049.22;;;7.11;100.00
12969;BME280;6549;53.128;8.182;2024-01-25T01:26:09;102056.41;;;7.16;100.00
12969;BME280;6549;53.128;8.182;2024-01-25T01:29:09;102052.94;;;7.07;100.00
12969;BME280;6549;53.128;8.182;2024-01-25T01:32:10;102055.31;;;7.08;100.00
12969;BME280;6549;53.128;8.182;2024-01-25T01:35:10;102047.38;;;6.95;100.00
12969;BME280;6549;53.128;8.182;2024-01-25T01:38:10;102047.22;;;6.91;100.00
12969;BME280;6549;53.128;8.182;2024-01-25T01:41:11;102051.75;;;6.87;100.00
12969;BME280;6549;53.128;8.182;2024-01-25T01:44:13;102064.91;;;6.94;100.00
12969;BME280;6549;53.128;8.182;2024-01-25T01:47:13;102070.06;;;6.87;100.00
12969;BME280;6549;53.128;8.182;2024-01-25T01:50:13;102072.81;;;6.78;100.00
12969;BME280;6549;53.128;8.182;2024-01-25T01:53:14;102077.47;;;6.77;100.00
12969;BME280;6549;53.128;8.182;2024-01-25T01:56:15;102074.28;;;6.75;100.00
12969;BME280;6549;53.128;8.182;2024-01-25T01:59:16;102088.41;;;6.77;100.00
12969;BME280;6549;53.128;8.182;2024-01-25T02:02:17;102078.00;;;6.71;100.00
12969;BME280;6549;53.128;8.182;2024-01-25T02:05:17;102085.88;;;6.72;100.00
12969;BME280;6549;53.128;8.182;2024-01-25T02:08:18;102099.34;;;6.77;100.00
12969;BME280;6549;53.128;8.182;2024-01-25T02:11:19;102107.44;;;6.65;100.00
12969;BME280;6549;53.128;8.182;2024-01-25T02:14:19;102118.50;;;6.69;100.00
12969;BME280;6549;53.128;8.182;2024-01-25T02:17:20;102126.09;;;6.63;100.00
12969;BME280;6549;53.128;8.182;2024-01-25T02:20:20;102132.97;;;6.69;100.00
12969;BME280;6549;53.128;8.182;2024-01-25T02:23:21;102128.16;;;6.66;100.00
12969;BME280;6549;53.128;8.182;2024-01-25T02:26:21;102129.59;;;6.64;100.00
12969;BME280;6549;53.128;8.182;2024-01-25T02:29:22;102127.06;;;6.59;100.00
12969;BME280;6549;53.128;8.182;2024-01-25T02:32:22;102136.34;;;6.66;100.00
12969;BME280;6549;53.128;8.182;2024-01-25T02:35:22;102123.34;;;6.63;100.00
12969;BME280;6549;53.128;8.182;2024-01-25T02:38:23;102129.13;;;6.62;100.00
12969;BME280;6549;53.128;8.182;2024-01-25T02:41:23;102121.09;;;6.65;100.00
12969;BME280;6549;53.128;8.182;2024-01-25T02:44:24;102119.97;;;6.66;100.00
12969;BME280;6549;53.128;8.182;2024-01-25T02:47:24;102121.09;;;6.57;100.00
12969;BME280;6549;53.128;8.182;2024-01-25T02:50:24;102118.53;;;6.60;100.00
12969;BME280;6549;53.128;8.182;2024-01-25T02:53:25;102127.19;;;6.62;100.00
12969;BME280;6549;53.128;8.182;2024-01-25T02:56:25;102130.41;;;6.56;100.00
12969;BME280;6549;53.128;8.182;2024-01-25T02:59:26;102125.75;;;6.56;100.00
12969;BME280;6549;53.128;8.182;2024-01-25T03:02:27;102132.69;;;6.54;100.00
12969;BME280;6549;53.128;8.182;2024-01-25T03:05:27;102137.63;;;6.60;100.00
12969;BME280;6549;53.128;8.182;2024-01-25T03:08:27;102137.66;;;6.52;100.00
12969;BME280;6549;53.128;8.182;2024-01-25T03:11:28;102149.22;;;6.57;100.00
12969;BME280;6549;53.128;8.182;2024-01-25T03:14:28;102140.72;;;6.50;100.00
12969;BME280;6549;53.128;8.182;2024-01-25T03:17:28;102144.41;;;6.54;100.00
12969;BME280;6549;53.128;8.182;2024-01-25T03:20:28;102146.50;;;6.57;100.00
12969;BME280;6549;53.128;8.182;2024-01-25T03:23:29;102145.69;;;6.48;100.00
12969;BME280;6549;53.128;8.182;2024-01-25T03:26:29;102154.84;;;6.52;100.00
12969;BME280;6549;53.128;8.182;2024-01-25T03:29:29;102144.41;;;6.54;100.00
12969;BME280;6549;53.128;8.182;2024-01-25T03:32:30;102133.78;;;6.61;100.00
12969;BME280;6549;53.128;8.182;2024-01-25T03:35:30;102138.94;;;6.63;100.00
12969;BME280;6549;53.128;8.182;2024-01-25T03:38:31;102145.84;;;6.60;100.00
12969;BME280;6549;53.128;8.182;2024-01-25T03:41:32;102150.84;;;6.58;100.00
12969;BME280;6549;53.128;8.182;2024-01-25T03:44:32;102164.94;;;6.60;100.00
12969;BME280;6549;53.128;8.182;2024-01-25T03:47:32;102175.44;;;6.50;100.00
12969;BME280;6549;53.128;8.182;2024-01-25T03:50:33;102162.38;;;6.55;100.00
12969;BME280;6549;53.128;8.182;2024-01-25T03:53:33;102170.78;;;6.50;100.00
12969;BME280;6549;53.128;8.182;2024-01-25T03:56:33;102175.72;;;6.65;100.00
12969;BME280;6549;53.128;8.182;2024-01-25T03:59:34;102184.84;;;6.69;100.00
12969;BME280;6549;53.128;8.182;2024-01-25T04:02:34;102186.00;;;6.60;100.00
12969;BME280;6549;53.128;8.182;2024-01-25T04:05:34;102193.88;;;6.61;100.00
12969;BME280;6549;53.128;8.182;2024-01-25T04:08:35;102203.84;;;6.57;100.00
12969;BME280;6549;53.128;8.182;2024-01-25T04:11:38;102219.91;;;6.67;100.00
12969;BME280;6549;53.128;8.182;2024-01-25T04:14:39;102221.50;;;6.51;100.00
12969;BME280;6549;53.128;8.182;2024-01-25T04:17:39;102216.69;;;6.48;100.00
12969;BME280;6549;53.128;8.182;2024-01-25T04:20:41;102221.19;;;6.61;100.00
12969;BME280;6549;53.128;8.182;2024-01-25T04:23:41;102220.38;;;6.61;100.00
12969;BME280;6549;53.128;8.182;2024-01-25T04:26:42;102224.56;;;6.58;100.00
12969;BME280;6549;53.128;8.182;2024-01-25T04:29:42;102214.94;;;6.52;100.00
12969;BME280;6549;53.128;8.182;2024-01-25T04:32:43;102217.66;;;6.52;100.00
12969;BME280;6549;53.128;8.182;2024-01-25T04:35:43;102215.25;;;6.51;100.00
12969;BME280;6549;53.128;8.182;2024-01-25T04:38:43;102223.13;;;6.44;100.00
12969;BME280;6549;53.128;8.182;2024-01-25T04:41:44;102218.94;;;6.38;100.00
12969;BME280;6549;53.128;8.182;2024-01-25T04:44:44;102216.72;;;6.40;100.00
12969;BME280;6549;53.128;8.182;2024-01-25T04:47:44;102228.59;;;6.44;100.00
12969;BME280;6549;53.128;8.182;2024-01-25T04:50:45;102230.34;;;6.31;100.00
12969;BME280;6549;53.128;8.182;2024-01-25T04:53:45;102231.63;;;6.25;100.00
12969;BME280;6549;53.128;8.182;2024-01-25T04:56:46;102237.09;;;6.25;100.00
12969;BME280;6549;53.128;8.182;2024-01-25T04:59:46;102231.97;;;6.23;100.00
12969;BME280;6549;53.128;8.182;2024-01-25T05:02:47;102236.78;;;6.18;100.00
12969;BME280;6549;53.128;8.182;2024-01-25T05:05:47;102234.84;;;6.27;100.00
12969;BME280;6549;53.128;8.182;2024-01-25T05:08:48;102240.47;;;6.22;100.00
12969;BME280;6549;53.128;8.182;2024-01-25T05:11:48;102235.47;;;6.15;100.00
12969;BME280;6549;53.128;8.182;2024-01-25T05:14:48;102233.53;;;6.16;100.00
12969;BME280;6549;53.128;8.182;2024-01-25T05:17:49;102229.69;;;6.08;100.00
12969;BME280;6549;53.128;8.182;2024-01-25T05:20:49;102238.03;;;6.03;100.00
12969;BME280;6549;53.128;8.182;2024-01-25T05:23:49;102243.47;;;6.03;100.00
12969;BME280;6549;53.128;8.182;2024-01-25T05:26:50;102240.44;;;6.05;100.00
12969;BME280;6549;53.128;8.182;2024-01-25T05:29:50;102238.03;;;6.12;100.00
12969;BME280;6549;53.128;8.182;2024-01-25T05:32:50;102232.91;;;6.02;100.00
12969;BME280;6549;53.128;8.182;2024-01-25T05:35:51;102237.72;;;6.05;100.00
12969;BME280;6549;53.128;8.182;2024-01-25T05:38:51;102246.56;;;6.02;100.00
12969;BME280;6549;53.128;8.182;2024-01-25T05:41:51;102244.94;;;6.01;100.00
12969;BME280;6549;53.128;8.182;2024-01-25T05:44:52;102248.13;;;6.03;100.00
12969;BME280;6549;53.128;8.182;2024-01-25T05:47:52;102263.09;;;6.14;100.00
12969;BME280;6549;53.128;8.182;2024-01-25T05:50:52;102260.97;;;6.11;100.00
12969;BME280;6549;53.128;8.182;2024-01-25T05:53:53;102258.91;;;6.16;100.00
12969;BME280;6549;53.128;8.182;2024-01-25T05:56:53;102252.03;;;6.10;100.00
12969;BME280;6549;53.128;8.182;2024-01-25T05:59:53;102243.03;;;6.10;100.00
12969;BME280;6549;53.128;8.182;2024-01-25T06:02:54;102242.34;;;5.96;100.00
12969;BME280;6549;53.128;8.182;2024-01-25T06:05:54;102234.16;;;5.87;100.00
12969;BME280;6549;53.128;8.182;2024-01-25T06:08:55;102249.56;;;5.92;100.00
12969;BME280;6549;53.128;8.182;2024-01-25T06:11:55;102247.66;;;6.01;100.00
12969;BME280;6549;53.128;8.182;2024-01-25T06:14:55;102254.41;;;6.03;100.00
12969;BME280;6549;53.128;8.182;2024-01-25T06:17:56;102247.41;;;5.80;100.00
12969;BME280;6549;53.128;8.182;2024-01-25T06:20:56;102251.31;;;5.88;100.00
12969;BME280;6549;53.128;8.182;2024-01-25T06:23:56;102255.78;;;5.83;100.00
12969;BME280;6549;53.128;8.182;2024-01-25T06:26:57;102261.25;;;5.83;100.00
12969;BME280;6549;53.128;8.182;2024-01-25T06:29:57;102284.06;;;5.88;100.00
12969;BME280;6549;53.128;8.182;2024-01-25T06:32:57;102294.34;;;5.91;100.00
12969;BME280;6549;53.128;8.182;2024-01-25T06:35:58;102295.38;;;5.81;100.00
12969;BME280;6549;53.128;8.182;2024-01-25T06:38:58;102302.69;;;5.94;100.00
12969;BME280;6549;53.128;8.182;2024-01-25T06:41:59;102296.28;;;5.99;100.00
12969;BME280;6549;53.128;8.182;2024-01-25T06:44:59;102290.22;;;6.02;100.00
12969;BME280;6549;53.128;8.182;2024-01-25T06:47:59;102299.00;;;5.99;100.00
12969;BME280;6549;53.128;8.182;2024-01-25T06:50:59;102299.31;;;5.89;100.00
12969;BME280;6549;53.128;8.182;2024-01-25T06:54:01;102305.78;;;6.01;100.00
12969;BME280;6549;53.128;8.182;2024-01-25T06:57:01;102323.13;;;6.05;100.00
12969;BME280;6549;53.128;8.182;2024-01-25T07:00:03;102327.78;;;6.05;100.00
12969;BME280;6549;53.128;8.182;2024-01-25T07:03:07;102339.34;;;6.10;100.00
12969;BME280;6549;53.128;8.182;2024-01-25T07:06:07;102330.19;;;6.06;100.00
12969;BME280;6549;53.128;8.182;2024-01-25T07:09:07;102335.97;;;6.05;100.00
12969;BME280;6549;53.128;8.182;2024-01-25T07:12:08;102339.94;;;5.99;100.00
12969;BME280;6549;53.128;8.182;2024-01-25T07:15:08;102348.16;;;6.07;100.00
12969;BME280;6549;53.128;8.182;2024-01-25T07:18:09;102343.31;;;5.96;100.00
12969;BME280;6549;53.128;8.182;2024-01-25T07:21:09;102343.50;;;6.08;100.00
12969;BME280;6549;53.128;8.182;2024-01-25T07:24:09;102351.81;;;6.03;100.00
12969;BME280;6549;53.128;8.182;2024-01-25T07:27:10;102360.97;;;5.98;100.00
12969;BME280;6549;53.128;8.182;2024-01-25T07:30:11;102360.34;;;6.01;100.00
12969;BME280;6549;53.128;8.182;2024-01-25T07:33:12;102361.63;;;6.04;100.00
12969;BME280;6549;53.128;8.182;2024-01-25T07:36:12;102375.59;;;6.02;100.00
12969;BME280;6549;53.128;8.182;2024-01-25T07:39:13;102374.63;;;6.07;100.00
12969;BME280;6549;53.128;8.182;2024-01-25T07:42:14;102378.47;;;5.97;100.00
12969;BME280;6549;53.128;8.182;2024-01-25T07:45:14;102371.22;;;5.93;100.00
12969;BME280;6549;53.128;8.182;2024-01-25T07:48:14;102379.63;;;6.05;100.00
12969;BME280;6549;53.128;8.182;2024-01-25T07:51:15;102377.66;;;5.97;100.00
12969;BME280;6549;53.128;8.182;2024-01-25T07:54:15;102371.41;;;5.96;100.00
12969;BME280;6549;53.128;8.182;2024-01-25T07:57:15;102367.88;;;5.96;100.00
12969;BME280;6549;53.128;8.182;2024-01-25T08:00:16;102387.44;;;5.98;100.00
12969;BME280;6549;53.128;8.182;2024-01-25T08:03:16;102387.28;;;5.94;100.00
12969;BME280;6549;53.128;8.182;2024-01-25T08:06:17;102389.44;;;6.06;100.00
12969;BME280;6549;53.128;8.182;2024-01-25T08:09:17;102395.19;;;6.04;100.00
12969;BME280;6549;53.128;8.182;2024-01-25T08:12:17;102396.66;;;6.10;100.00
12969;BME280;6549;53.128;8.182;2024-01-25T08:15:18;102399.06;;;6.12;100.00
12969;BME280;6549;53.128;8.182;2024-01-25T08:18:18;102386.88;;;6.09;100.00
12969;BME280;6549;53.128;8.182;2024-01-25T08:21:19;102388.47;;;6.10;100.00
12969;BME280;6549;53.128;8.182;2024-01-25T08:24:19;102391.50;;;6.09;100.00
12969;BME280;6549;53.128;8.182;2024-01-25T08:27:20;102380.59;;;6.09;100.00
12969;BME280;6549;53.128;8.182;2024-01-25T08:30:20;102377.38;;;6.07;100.00
12969;BME280;6549;53.128;8.182;2024-01-25T08:33:20;102383.31;;;6.09;100.00
12969;BME280;6549;53.128;8.182;2024-01-25T08:36:21;102391.34;;;6.05;100.00
12969;BME280;6549;53.128;8.182;2024-01-25T08:39:22;102398.09;;;6.08;100.00
12969;BME280;6549;53.128;8.182;2024-01-25T08:42:23;102405.78;;;6.06;100.00
12969;BME280;6549;53.128;8.182;2024-01-25T08:45:23;102419.00;;;6.21;100.00
12969;BME280;6549;53.128;8.182;2024-01-25T08:48:24;102413.38;;;6.17;100.00
12969;BME280;6549;53.128;8.182;2024-01-25T08:51:25;102410.94;;;6.16;100.00
12969;BME280;6549;53.128;8.182;2024-01-25T08:54:25;102403.41;;;6.13;100.00
12969;BME280;6549;53.128;8.182;2024-01-25T08:57:25;102402.28;;;6.14;100.00
12969;BME280;6549;53.128;8.182;2024-01-25T09:00:26;102398.84;;;6.00;100.00
12969;BME280;6549;53.128;8.182;2024-01-25T09:03:26;102401.50;;;6.13;100.00
12969;BME280;6549;53.128;8.182;2024-01-25T09:06:26;102399.47;;;6.27;100.00
12969;BME280;6549;53.128;8.182;2024-01-25T09:09:27;102408.75;;;6.26;100.00
12969;BME280;6549;53.128;8.182;2024-01-25T09:12:28;102415.19;;;6.30;100.00
12969;BME280;6549;53.128;8.182;2024-01-25T09:15:28;102415.19;;;6.30;100.00
12969;BME280;6549;53.128;8.182;2024-01-25T09:18:29;102417.63;;;6.32;100.00
12969;BME280;6549;53.128;8.182;2024-01-25T09:21:29;102422.94;;;6.37;100.00
12969;BME280;6549;53.128;8.182;2024-01-25T09:24:30;102425.97;;;6.36;100.00
12969;BME280;6549;53.128;8.182;2024-01-25T09:27:31;102433.91;;;6.54;100.00
12969;BME280;6549;53.128;8.182;2024-01-25T09:30:31;102434.53;;;6.51;100.00
12969;BME280;6549;53.128;8.182;2024-01-25T09:33:31;102435.47;;;6.47;100.00
12969;BME280;6549;53.128;8.182;2024-01-25T09:36:32;102438.41;;;6.50;100.00
12969;BME280;6549;53.128;8.182;2024-01-25T09:39:32;102445.59;;;6.46;100.00
12969;BME280;6549;53.128;8.182;2024-01-25T09:42:33;102445.94;;;6.45;100.00
12969;BME280;6549;53.128;8.182;2024-01-25T09:45:33;102437.41;;;6.46;100.00
12969;BME280;6549;53.128;8.182;2024-01-25T09:48:34;102443.88;;;6.50;100.00
12969;BME280;6549;53.128;8.182;2024-01-25T09:51:37;102439.19;;;6.51;100.00
12969;BME280;6549;53.128;8.182;2024-01-25T09:54:39;102450.44;;;6.49;100.00
12969;BME280;6549;53.128;8.182;2024-01-25T09:57:41;102456.22;;;6.56;100.00
12969;BME280;6549;53.128;8.182;2024-01-25T10:00:41;102456.22;;;6.56;100.00
12969;BME280;6549;53.128;8.182;2024-01-25T10:03:43;102452.88;;;6.59;100.00
12969;BME280;6549;53.128;8.182;2024-01-25T10:06:44;102462.38;;;6.70;100.00
12969;BME280;6549;53.128;8.182;2024-01-25T10:09:44;102468.50;;;6.76;100.00
12969;BME280;6549;53.128;8.182;2024-01-25T10:12:44;102452.94;;;6.76;100.00
12969;BME280;6549;53.128;8.182;2024-01-25T10:15:45;102451.28;;;6.67;100.00
12969;BME280;6549;53.128;8.182;2024-01-25T10:18:47;102457.72;;;6.62;100.00
12969;BME280;6549;53.128;8.182;2024-01-25T10:21:47;102461.28;;;6.71;100.00
12969;BME280;6549;53.128;8.182;2024-01-25T10:24:48;102461.28;;;6.71;100.00
12969;BME280;6549;53.128;8.182;2024-01-25T10:27:53;102460.09;;;6.64;100.00
12969;BME280;6549;53.128;8.182;2024-01-25T10:30:56;102473.34;;;6.79;100.00
12969;BME280;6549;53.128;8.182;2024-01-25T10:33:57;102482.78;;;6.73;100.00
12969;BME280;6549;53.128;8.182;2024-01-25T10:36:58;102473.63;;;6.77;100.00
12969;BME280;6549;53.128;8.182;2024-01-25T10:39:59;102478.78;;;6.70;100.00
12969;BME280;6549;53.128;8.182;2024-01-25T10:42:59;102479.88;;;6.69;100.00
12969;BME280;6549;53.128;8.182;2024-01-25T10:46:00;102477.31;;;6.73;100.00
12969;BME280;6549;53.128;8.182;2024-01-25T10:49:01;102467.53;;;6.72;100.00
12969;BME280;6549;53.128;8.182;2024-01-25T10:52:04;102469.81;;;6.87;100.00
12969;BME280;6549;53.128;8.182;2024-01-25T10:55:05;102473.38;;;6.96;100.00
12969;BME280;6549;53.128;8.182;2024-01-25T10:58:07;102460.19;;;6.81;100.00
12969;BME280;6549;53.128;8.182;2024-01-25T11:01:11;102471.88;;;6.82;100.00
12969;BME280;6549;53.128;8.182;2024-01-25T11:04:19;102458.28;;;6.99;100.00
12969;BME280;6549;53.128;8.182;2024-01-25T11:07:19;102454.22;;;6.96;100.00
12969;BME280;6549;53.128;8.182;2024-01-25T11:10:23;102451.50;;;7.13;100.00
12969;BME280;6549;53.128;8.182;2024-01-25T11:13:26;102445.25;;;7.13;100.00
12969;BME280;6549;53.128;8.182;2024-01-25T11:16:31;102446.84;;;7.22;100.00
12969;BME280;6549;53.128;8.182;2024-01-25T11:19:33;102443.31;;;7.22;100.00
12969;BME280;6549;53.128;8.182;2024-01-25T11:22:35;102438.34;;;7.15;100.00
12969;BME280;6549;53.128;8.182;2024-01-25T11:25:37;102436.88;;;7.18;100.00
12969;BME280;6549;53.128;8.182;2024-01-25T11:28:37;102426.91;;;7.13;100.00
12969;BME280;6549;53.128;8.182;2024-01-25T11:31:38;102426.44;;;7.11;100.00
12969;BME280;6549;53.128;8.182;2024-01-25T11:34:38;102431.91;;;7.11;100.00
12969;BME280;6549;53.128;8.182;2024-01-25T11:37:38;102423.88;;;7.06;100.00
12969;BME280;6549;53.128;8.182;2024-01-25T11:40:39;102426.91;;;7.22;100.00
12969;BME280;6549;53.128;8.182;2024-01-25T11:43:40;102418.38;;;7.41;100.00
12969;BME280;6549;53.128;8.182;2024-01-25T11:46:41;102415.97;;;7.39;100.00
12969;BME280;6549;53.128;8.182;2024-01-25T11:49:41;102418.84;;;7.60;100.00
12969;BME280;6549;53.128;8.182;2024-01-25T11:52:42;102415.31;;;7.59;100.00
12969;BME280;6549;53.128;8.182;2024-01-25T11:55:42;102401.75;;;7.72;100.00
12969;BME280;6549;53.128;8.182;2024-01-25T11:58:43;102399.13;;;7.84;100.00
12969;BME280;6549;53.128;8.182;2024-01-25T12:01:45;102401.25;;;7.78;100.00
12969;BME280;6549;53.128;8.182;2024-01-25T12:04:46;102396.06;;;7.85;100.00
12969;BME280;6549;53.128;8.182;2024-01-25T12:07:47;102401.69;;;7.89;100.00
12969;BME280;6549;53.128;8.182;2024-01-25T12:10:48;102416.19;;;7.89;100.00
12969;BME280;6549;53.128;8.182;2024-01-25T12:13:49;102422.66;;;7.76;100.00
12969;BME280;6549;53.128;8.182;2024-01-25T12:16:50;102419.00;;;7.63;100.00
12969;BME280;6549;53.128;8.182;2024-01-25T12:19:50;102419.31;;;7.53;100.00
12969;BME280;6549;53.128;8.182;2024-01-25T12:22:50;102418.19;;;7.54;100.00
12969;BME280;6549;53.128;8.182;2024-01-25T12:25:51;102415.50;;;7.37;100.00
12969;BME280;6549;53.128;8.182;2024-01-25T12:28:51;102426.28;;;7.42;100.00
12969;BME280;6549;53.128;8.182;2024-01-25T12:31:51;102423.97;;;7.61;100.00
12969;BME280;6549;53.128;8.182;2024-01-25T12:35:01;102424.91;;;7.83;100.00
12969;BME280;6549;53.128;8.182;2024-01-25T12:38:01;102421.63;;;7.98;100.00
12969;BME280;6549;53.128;8.182;2024-01-25T12:41:02;102421.78;;;8.01;100.00
12969;BME280;6549;53.128;8.182;2024-01-25T12:44:03;102406.25;;;8.23;100.00
12969;BME280;6549;53.128;8.182;2024-01-25T12:47:04;102405.31;;;8.19;100.00
12969;BME280;6549;53.128;8.182;2024-01-25T12:50:06;102397.59;;;8.12;100.00
12969;BME280;6549;53.128;8.182;2024-01-25T12:53:10;102402.13;;;8.08;100.00
12969;BME280;6549;53.128;8.182;2024-01-25T12:56:10;102408.50;;;8.21;100.00
12969;BME280;6549;53.128;8.182;2024-01-25T12:59:11;102392.47;;;8.02;100.00
12969;BME280;6549;53.128;8.182;2024-01-25T13:02:12;102387.75;;;8.11;100.00
12969;BME280;6549;53.128;8.182;2024-01-25T13:05:12;102383.13;;;8.03;100.00
12969;BME280;6549;53.128;8.182;2024-01-25T13:08:12;102385.06;;;8.02;100.00
12969;BME280;6549;53.128;8.182;2024-01-25T13:11:13;102388.34;;;8.25;100.00
12969;BME280;6549;53.128;8.182;2024-01-25T13:14:14;102390.31;;;8.16;100.00
12969;BME280;6549;53.128;8.182;2024-01-25T13:17:14;102389.16;;;8.26;100.00
12969;BME280;6549;53.128;8.182;2024-01-25T13:20:15;102389.06;;;8.13;100.00
12969;BME280;6549;53.128;8.182;2024-01-25T13:23:15;102387.03;;;7.93;100.00
12969;BME280;6549;53.128;8.182;2024-01-25T13:26:15;102393.97;;;7.91;100.00
12969;BME280;6549;53.128;8.182;2024-01-25T13:29:16;102388.53;;;7.82;100.00
12969;BME280;6549;53.128;8.182;2024-01-25T13:32:16;102392.72;;;7.80;100.00
12969;BME280;6549;53.128;8.182;2024-01-25T13:35:17;102395.81;;;7.70;100.00
12969;BME280;6549;53.128;8.182;2024-01-25T13:38:17;102389.69;;;7.73;100.00
12969;BME280;6549;53.128;8.182;2024-01-25T13:41:17;102387.91;;;7.77;100.00
12969;BME280;6549;53.128;8.182;2024-01-25T13:44:18;102389.19;;;7.71;100.00
12969;BME280;6549;53.128;8.182;2024-01-25T13:47:18;102394.34;;;7.72;100.00
12969;BME280;6549;53.128;8.182;2024-01-25T13:50:18;102385.31;;;7.72;100.00
12969;BME280;6549;53.128;8.182;2024-01-25T13:53:19;102382.88;;;7.87;100.00
12969;BME280;6549;53.128;8.182;2024-01-25T13:56:19;102383.03;;;7.91;100.00
12969;BME280;6549;53.128;8.182;2024-01-25T13:59:19;102386.41;;;7.96;100.00
12969;BME280;6549;53.128;8.182;2024-01-25T14:02:20;102378.59;;;8.07;100.00
12969;BME280;6549;53.128;8.182;2024-01-25T14:05:20;102380.13;;;7.96;100.00
12969;BME280;6549;53.128;8.182;2024-01-25T14:08:20;102372.00;;;8.08;100.00
12969;BME280;6549;53.128;8.182;2024-01-25T14:11:21;102374.25;;;8.06;100.00
12969;BME280;6549;53.128;8.182;2024-01-25T14:14:21;102388.88;;;8.19;100.00
12969;BME280;6549;53.128;8.182;2024-01-25T14:17:21;102391.75;;;8.22;100.00
12969;BME280;6549;53.128;8.182;2024-01-25T14:20:22;102381.91;;;8.21;100.00
12969;BME280;6549;53.128;8.182;2024-01-25T14:23:23;102389.94;;;8.35;100.00
12969;BME280;6549;53.128;8.182;2024-01-25T14:26:23;102386.41;;;8.26;100.00
12969;BME280;6549;53.128;8.182;2024-01-25T14:29:23;102382.81;;;8.42;100.00
12969;BME280;6549;53.128;8.182;2024-01-25T14:32:24;102384.59;;;8.38;100.00
12969;BME280;6549;53.128;8.182;2024-01-25T14:35:24;102375.13;;;8.36;100.00
12969;BME280;6549;53.128;8.182;2024-01-25T14:38:30;102381.38;;;8.28;100.00
12969;BME280;6549;53.128;8.182;2024-01-25T14:41:31;102374.38;;;8.18;100.00
12969;BME280;6549;53.128;8.182;2024-01-25T14:44:32;102366.81;;;8.15;100.00
12969;BME280;6549;53.128;8.182;2024-01-25T14:47:32;102367.47;;;8.12;100.00
12969;BME280;6549;53.128;8.182;2024-01-25T14:50:32;102370.72;;;8.05;100.00
12969;BME280;6549;53.128;8.182;2024-01-25T14:53:33;102366.25;;;8.01;100.00
12969;BME280;6549;53.128;8.182;2024-01-25T14:56:33;102363.03;;;7.99;100.00
12969;BME280;6549;53.128;8.182;2024-01-25T14:59:33;102356.47;;;7.91;100.00
12969;BME280;6549;53.128;8.182;2024-01-25T15:02:34;102362.25;;;7.90;100.00
12969;BME280;6549;53.128;8.182;2024-01-25T15:05:34;102360.19;;;7.87;100.00
12969;BME280;6549;53.128;8.182;2024-01-25T15:08:35;102359.59;;;7.73;100.00
12969;BME280;6549;53.128;8.182;2024-01-25T15:11:36;102363.28;;;7.68;100.00
12969;BME280;6549;53.128;8.182;2024-01-25T15:14:36;102354.78;;;7.70;100.00
12969;BME280;6549;53.128;8.182;2024-01-25T15:17:36;102351.09;;;7.65;100.00
12969;BME280;6549;53.128;8.182;2024-01-25T15:20:37;102354.31;;;7.59;100.00
12969;BME280;6549;53.128;8.182;2024-01-25T15:23:37;102359.50;;;7.52;100.00
12969;BME280;6549;53.128;8.182;2024-01-25T15:26:41;102346.78;;;7.47;100.00
12969;BME280;6549;53.128;8.182;2024-01-25T15:29:41;102348.88;;;7.42;100.00
12969;BME280;6549;53.128;8.182;2024-01-25T15:32:41;102345.03;;;7.34;100.00
12969;BME280;6549;53.128;8.182;2024-01-25T15:35:42;102354.84;;;7.35;100.00
12969;BME280;6549;53.128;8.182;2024-01-25T15:38:43;102352.28;;;7.30;100.00
12969;BME280;6549;53.128;8.182;2024-01-25T15:41:43;102358.38;;;7.27;100.00
12969;BME280;6549;53.128;8.182;2024-01-25T15:44:43;102356.63;;;7.22;100.00
12969;BME280;6549;53.128;8.182;2024-01-25T15:47:44;102358.72;;;7.17;100.00
12969;BME280;6549;53.128;8.182;2024-01-25T15:50:44;102357.75;;;7.13;100.00
12969;BME280;6549;53.128;8.182;2024-01-25T15:53:44;102348.59;;;7.17;100.00
12969;BME280;6549;53.128;8.182;2024-01-25T15:56:45;102350.38;;;7.13;100.00